Time;durP1;ratioP1;P1;durP2;ratioP2;P2;SDS_P1;SDS_P2;PMS_P1;PMS_P2;Temp;Humidity;BMP_temperature;BMP_pressure;BME280_temperature;BME280_humidity;BME280_pressure;Samples;Min_cycle;Max_cycle;Signal;HPM_P1;HPM_P2
2023/06/22 00:04:29;;;;;;;8.60;6.40;;;19.70;99.90;;;;;;5113106;22;20252;-80
2023/06/22 00:06:55;;;;;;;7.57;6.20;;;19.60;1.00;;;;;;5058819;28;20174;-80
2023/06/22 00:09:21;;;;;;;7.85;6.55;;;19.50;1.00;;;;;;5058308;28;20180;-81
2023/06/22 00:11:46;;;;;;;6.78;5.95;;;19.50;1.00;;;;;;5058578;28;20181;-79
2023/06/22 00:14:12;;;;;;;7.72;6.45;;;19.40;1.00;;;;;;5058276;28;20197;-80
2023/06/22 00:16:37;;;;;;;7.28;6.15;;;19.40;1.00;;;;;;5041085;28;20174;-80
2023/06/22 00:19:03;;;;;;;6.68;6.07;;;19.40;1.00;;;;;;5040230;28;20208;-80
2023/06/22 00:21:29;;;;;;;6.97;6.28;;;19.30;1.00;;;;;;5040567;28;20162;-80
2023/06/22 00:23:55;;;;;;;6.93;6.32;;;19.30;1.00;;;;;;5040633;28;20197;-80
2023/06/22 00:26:21;;;;;;;7.20;6.50;;;19.40;1.00;;;;;;5057504;28;20256;-80
2023/06/22 00:28:47;;;;;;;7.00;6.30;;;19.50;1.00;;;;;;5057694;28;20174;-80
2023/06/22 00:31:13;;;;;;;7.50;6.70;;;19.60;1.00;;;;;;5057840;28;20174;-81
2023/06/22 00:33:38;;;;;;;8.52;7.55;;;19.50;99.90;;;;;;5057101;28;20193;-80
2023/06/22 00:36:05;;;;;;;8.50;7.60;;;19.40;1.00;;;;;;5057560;28;20177;-80
2023/06/22 00:38:31;;;;;;;8.77;7.32;;;19.10;1.00;;;;;;5056882;28;20342;-80
2023/06/22 00:40:56;;;;;;;9.23;7.03;;;18.90;99.90;;;;;;5039765;28;20166;-80
2023/06/22 00:43:22;;;;;;;9.70;7.43;;;19.10;99.90;;;;;;5038910;28;20193;-80
2023/06/22 00:45:47;;;;;;;10.18;7.10;;;19.20;1.00;;;;;;5056054;28;20169;-80
2023/06/22 00:48:14;;;;;;;8.57;6.90;;;19.10;1.00;;;;;;5036139;28;20170;-80
2023/06/22 00:50:40;;;;;;;7.57;6.82;;;19.00;1.00;;;;;;5049892;28;20223;-80
2023/06/22 00:53:11;;;;;;;9.65;6.63;;;19.00;1.00;;;;;;5058584;28;20192;-80
2023/06/22 00:55:45;;;;;;;10.45;6.88;;;18.80;1.00;;;;;;5058113;28;20180;-80
2023/06/22 00:58:12;;;;;;;7.30;6.40;;;18.80;1.00;;;;;;5075428;28;20173;-82
2023/06/22 01:00:38;;;;;;;7.75;6.88;;;18.60;45.50;;;;;;5057494;28;20627;-80
2023/06/22 01:03:08;;;;;;;9.73;7.57;;;18.70;99.90;;;;;;5058793;28;20208;-80
2023/06/22 01:05:34;;;;;;;8.80;7.90;;;18.50;99.90;;;;;;5060413;28;20241;-80
2023/06/22 01:08:19;;;;;;;8.93;8.03;;;18.60;99.90;;;;;;5078108;28;20234;-80
2023/06/22 01:11:08;;;;;;;9.17;8.27;;;18.80;99.90;;;;;;5059360;28;20169;-80
2023/06/22 01:13:52;;;;;;;9.03;8.13;;;18.90;99.90;;;;;;5077487;28;20197;-80
2023/06/22 01:16:26;;;;;;;8.97;8.00;;;19.10;99.90;;;;;;5077664;28;20707;-80
2023/06/22 01:18:55;;;;;;;9.23;8.33;;;19.10;99.90;;;;;;5077357;28;20188;-80
2023/06/22 01:21:23;;;;;;;9.27;7.97;;;19.10;99.90;;;;;;5079759;28;20176;-80
2023/06/22 01:24:24;;;;;;;8.90;8.00;;;19.10;99.90;;;;;;5062379;28;20227;-80
2023/06/22 01:27:21;;;;;;;8.50;7.70;;;19.20;99.90;;;;;;5062584;28;20616;-80
2023/06/22 01:29:51;;;;;;;8.35;7.50;;;19.20;99.90;;;;;;5062158;28;20218;-79
2023/06/22 01:32:18;;;;;;;8.77;7.88;;;19.30;99.90;;;;;;5079516;28;20586;-80
2023/06/22 01:34:45;;;;;;;8.35;7.50;;;19.30;99.90;;;;;;5079242;28;20169;-81
2023/06/22 01:37:12;;;;;;;9.00;8.10;;;19.30;99.90;;;;;;5061778;28;20200;-79
2023/06/22 01:39:37;;;;;;;9.02;8.23;;;19.40;99.00;;;;;;5070859;28;20252;-80
2023/06/22 01:42:05;;;;;;;9.75;8.38;;;19.40;33.90;;;;;;5057150;28;20165;-79
2023/06/22 01:44:31;;;;;;;11.37;7.93;;;19.30;99.90;;;;;;5060897;28;20299;-80
2023/06/22 01:46:56;;;;;;;9.45;8.55;;;19.10;99.90;;;;;;5078058;28;20201;-81
2023/06/22 01:49:23;;;;;;;10.10;8.38;;;19.20;99.90;;;;;;5060639;28;20183;-79
2023/06/22 01:51:48;;;;;;;12.98;8.98;;;19.20;99.90;;;;;;5060238;28;20173;-79
2023/06/22 01:54:14;;;;;;;10.35;9.25;;;19.20;99.90;;;;;;5059632;28;20291;-80
2023/06/22 01:56:40;;;;;;;10.43;9.00;;;19.30;99.90;;;;;;5077520;28;20169;-80
2023/06/22 01:59:20;;;;;;;10.63;9.25;;;19.30;99.90;;;;;;5076683;28;20242;-80
2023/06/22 02:02:07;;;;;;;11.68;9.65;;;19.30;99.90;;;;;;5058662;28;20176;-80
2023/06/22 02:04:48;;;;;;;12.13;9.55;;;19.20;99.90;;;;;;5058724;28;20199;-80
2023/06/22 02:07:17;;;;;;;11.48;10.38;;;19.20;99.90;;;;;;5076203;28;20244;-81
2023/06/22 02:09:45;;;;;;;11.05;9.75;;;19.20;99.90;;;;;;5057415;28;20181;-80
2023/06/22 02:12:13;;;;;;;10.90;9.88;;;19.30;99.90;;;;;;5057935;28;20172;-80
2023/06/22 02:14:39;;;;;;;11.07;9.98;;;19.30;99.90;;;;;;5056418;28;20192;-80
2023/06/22 02:17:09;;;;;;;12.25;10.35;;;19.20;99.90;;;;;;5076041;28;20176;-80
2023/06/22 02:19:38;;;;;;;10.95;9.85;;;19.20;99.90;;;;;;5075471;28;20208;-80
2023/06/22 02:22:05;;;;;;;10.23;9.23;;;19.20;99.90;;;;;;5062901;28;20169;-80
2023/06/22 02:24:31;;;;;;;10.40;9.33;;;19.20;99.90;;;;;;5082232;28;20195;-79
2023/06/22 02:27:01;;;;;;;10.55;9.55;;;19.20;99.90;;;;;;5081902;28;20184;-80
2023/06/22 02:29:27;;;;;;;11.18;10.07;;;19.10;99.90;;;;;;5081561;28;20173;-79
2023/06/22 02:31:54;;;;;;;10.07;9.05;;;19.30;99.90;;;;;;5063575;28;20204;-79
2023/06/22 02:34:20;;;;;;;10.40;9.32;;;19.30;99.90;;;;;;5063750;28;20211;-79
2023/06/22 02:36:50;;;;;;;12.00;10.00;;;19.20;99.90;;;;;;5080904;28;20177;-79
2023/06/22 02:39:17;;;;;;;10.65;9.63;;;19.20;99.90;;;;;;5063202;28;20218;-79
2023/06/22 02:41:43;;;;;;;11.00;9.88;;;19.20;99.90;;;;;;5080550;28;20264;-80
2023/06/22 02:44:08;;;;;;;11.23;10.13;;;19.10;99.90;;;;;;5063275;28;20212;-80
2023/06/22 02:46:35;;;;;;;11.20;9.98;;;19.00;99.90;;;;;;5063568;28;20176;-79
2023/06/22 02:49:00;;;;;;;12.48;11.18;;;18.90;99.90;;;;;;5058300;28;20182;-79
2023/06/22 02:51:26;;;;;;;11.52;10.43;;;18.90;99.90;;;;;;5071311;28;20165;-79
2023/06/22 02:53:56;;;;;;;11.33;10.00;;;18.90;99.90;;;;;;5062719;28;20260;-80
2023/06/22 02:56:24;;;;;;;11.73;10.53;;;18.80;99.90;;;;;;5080821;28;20169;-80
2023/06/22 02:58:50;;;;;;;11.73;10.53;;;18.80;99.90;;;;;;5062363;28;20226;-79
2023/06/22 03:01:16;;;;;;;12.30;11.00;;;18.70;99.90;;;;;;5044452;28;20174;-79
2023/06/22 03:03:42;;;;;;;11.00;9.83;;;18.80;99.90;;;;;;5042387;28;20213;-80
2023/06/22 03:06:07;;;;;;;11.93;10.80;;;19.00;99.90;;;;;;5042591;28;20184;-79
2023/06/22 03:08:34;;;;;;;11.90;10.70;;;19.10;99.90;;;;;;5042068;28;20269;-79
2023/06/22 03:10:59;;;;;;;11.90;10.43;;;19.20;99.90;;;;;;5042374;28;20170;-79
2023/06/22 03:13:25;;;;;;;12.67;11.37;;;19.10;99.90;;;;;;5041997;28;20205;-79
2023/06/22 03:15:51;;;;;;;11.63;10.50;;;19.00;99.90;;;;;;5059743;28;20184;-79
2023/06/22 03:18:16;;;;;;;12.77;11.57;;;19.10;99.90;;;;;;5059519;28;20182;-80
2023/06/22 03:20:42;;;;;;;14.07;12.05;;;19.20;99.90;;;;;;5041827;28;20174;-79
2023/06/22 03:23:07;;;;;;;12.77;11.48;;;19.20;99.90;;;;;;5040624;28;20293;-78
2023/06/22 03:25:33;;;;;;;12.05;10.85;;;19.30;99.90;;;;;;5057100;28;20166;-78
2023/06/22 03:28:00;;;;;;;12.20;11.00;;;19.20;99.90;;;;;;5040432;28;20170;-78
2023/06/22 03:30:26;;;;;;;11.40;10.23;;;19.20;99.90;;;;;;5056961;28;20173;-78
2023/06/22 03:32:51;;;;;;;11.68;10.48;;;19.20;99.90;;;;;;5057769;28;20675;-79
2023/06/22 03:35:17;;;;;;;12.18;10.82;;;19.20;99.90;;;;;;5040748;28;20236;-78
2023/06/22 03:37:42;;;;;;;11.65;10.48;;;19.10;99.90;;;;;;5056994;28;20180;-78
2023/06/22 03:40:08;;;;;;;11.52;10.43;;;19.10;99.90;;;;;;5039170;28;20672;-78
2023/06/22 03:42:36;;;;;;;11.75;9.90;;;19.00;99.90;;;;;;5039343;28;20280;-78
2023/06/22 03:45:03;;;;;;;10.45;9.30;;;19.10;99.90;;;;;;5038466;28;20177;-78
2023/06/22 03:47:28;;;;;;;10.18;9.23;;;19.20;99.90;;;;;;5038800;28;20177;-78
2023/06/22 03:49:55;;;;;;;9.75;8.75;;;19.20;99.90;;;;;;5038357;28;20177;-78
2023/06/22 03:52:22;;;;;;;9.82;8.82;;;19.30;99.90;;;;;;5038178;28;20169;-78
2023/06/22 03:54:47;;;;;;;9.90;8.90;;;19.30;99.90;;;;;;5055334;28;20651;-78
2023/06/22 03:57:13;;;;;;;9.52;8.63;;;19.40;99.90;;;;;;5055534;28;20176;-78
2023/06/22 03:59:39;;;;;;;9.93;8.93;;;19.50;99.90;;;;;;5036890;28;20201;-80
2023/06/22 04:02:04;;;;;;;10.93;9.15;;;19.60;99.90;;;;;;5037221;28;20212;-78
2023/06/22 04:04:30;;;;;;;11.35;10.02;;;19.40;99.90;;;;;;5036759;28;20211;-78
2023/06/22 04:06:55;;;;;;;12.35;9.70;;;19.20;99.90;;;;;;5036799;28;20170;-78
2023/06/22 04:09:21;;;;;;;10.30;9.30;;;19.10;99.90;;;;;;5036323;28;20169;-78
2023/06/22 04:11:47;;;;;;;10.95;9.80;;;19.10;99.90;;;;;;5053353;28;20648;-78
2023/06/22 04:14:13;;;;;;;9.97;8.97;;;19.20;99.90;;;;;;5053145;28;20205;-79
2023/06/22 04:16:38;;;;;;;11.27;9.65;;;19.20;99.90;;;;;;5035599;28;20173;-78
2023/06/22 04:19:04;;;;;;;10.18;9.18;;;19.30;99.90;;;;;;5034820;28;20246;-78
2023/06/22 04:21:29;;;;;;;9.90;9.00;;;19.30;99.90;;;;;;5052366;28;20555;-78
2023/06/22 04:23:55;;;;;;;10.77;9.68;;;19.40;99.90;;;;;;5034182;28;20200;-78
2023/06/22 04:26:21;;;;;;;10.65;9.55;;;19.30;99.90;;;;;;5052166;28;20264;-78
2023/06/22 04:28:51;;;;;;;10.95;9.73;;;19.40;99.90;;;;;;5053062;28;20178;-78
2023/06/22 04:31:19;;;;;;;10.52;9.20;;;19.40;99.90;;;;;;5056621;28;20238;-78
2023/06/22 04:33:44;;;;;;;10.48;9.38;;;19.40;99.90;;;;;;5040037;28;20571;-77
2023/06/22 04:36:13;;;;;;;11.60;10.02;;;19.40;99.90;;;;;;5039962;28;20264;-77
2023/06/22 04:38:39;;;;;;;11.02;9.25;;;19.40;99.90;;;;;;5059264;28;20185;-78
2023/06/22 04:41:04;;;;;;;10.88;9.88;;;19.40;99.90;;;;;;5042900;28;20181;-78
2023/06/22 04:43:30;;;;;;;11.38;10.23;;;19.40;99.90;;;;;;5041355;28;20190;-78
2023/06/22 04:46:03;;;;;;;10.07;9.00;;;19.40;99.90;;;;;;5060158;28;20169;-77
2023/06/22 04:48:32;;;;;;;9.57;8.68;;;19.40;99.90;;;;;;5060366;28;20174;-78
2023/06/22 04:51:02;;;;;;;9.68;8.75;;;19.50;99.90;;;;;;5059578;28;20573;-79
2023/06/22 04:53:29;;;;;;;9.20;8.30;;;19.50;99.90;;;;;;5042677;28;20197;-78
2023/06/22 04:55:55;;;;;;;10.57;9.00;;;19.50;99.90;;;;;;5059852;28;20194;-77
2023/06/22 04:58:21;;;;;;;9.73;8.82;;;19.50;99.90;;;;;;5059592;28;20204;-78
2023/06/22 05:00:47;;;;;;;9.63;8.50;;;19.60;99.90;;;;;;5058997;28;20165;-79
2023/06/22 05:03:13;;;;;;;9.65;8.35;;;19.80;99.90;;;;;;5059171;28;20240;-79
2023/06/22 05:05:39;;;;;;;9.60;8.70;;;19.90;99.90;;;;;;5041990;28;20708;-78
2023/06/22 05:08:06;;;;;;;10.25;8.93;;;20.00;99.90;;;;;;5041619;28;20174;-78
2023/06/22 05:10:33;;;;;;;12.45;10.10;;;20.10;99.90;;;;;;5065004;28;20253;-81
2023/06/22 05:12:58;;;;;;;11.48;10.00;;;20.10;99.90;;;;;;5048749;28;20194;-80
2023/06/22 05:15:27;;;;;;;11.48;10.20;;;20.10;99.90;;;;;;5049386;28;20170;-81
2023/06/22 05:17:53;;;;;;;10.38;9.30;;;20.20;99.90;;;;;;5049824;28;20170;-81
2023/06/22 05:20:19;;;;;;;9.85;8.95;;;20.20;99.90;;;;;;5049677;28;20684;-80
2023/06/22 05:22:44;;;;;;;10.23;9.18;;;20.30;99.90;;;;;;5049989;28;20564;-81
2023/06/22 05:25:11;;;;;;;10.20;9.20;;;20.40;99.90;;;;;;5070217;28;20188;-80
2023/06/22 05:27:40;;;;;;;10.35;9.25;;;20.40;99.90;;;;;;5052063;28;20169;-81
2023/06/22 05:30:07;;;;;;;10.63;9.63;;;20.30;99.90;;;;;;5051212;28;20177;-81
2023/06/22 05:32:33;;;;;;;11.40;10.30;;;20.30;99.90;;;;;;5052092;28;20201;-81
2023/06/22 05:34:59;;;;;;;10.68;9.57;;;20.20;99.90;;;;;;5046132;28;20174;-80
2023/06/22 05:37:24;;;;;;;11.35;9.18;;;20.30;99.90;;;;;;5052589;28;20180;-82
2023/06/22 05:39:50;;;;;;;10.77;9.60;;;20.30;99.90;;;;;;5066443;28;20209;-81
2023/06/22 05:42:16;;;;;;;10.77;9.77;;;20.40;99.90;;;;;;5068562;28;20169;-80
2023/06/22 05:44:41;;;;;;;9.75;8.80;;;20.40;99.90;;;;;;5053100;28;20237;-80
2023/06/22 05:47:07;;;;;;;10.18;9.18;;;20.50;99.90;;;;;;5053581;28;20169;-81
2023/06/22 05:49:33;;;;;;;11.52;9.70;;;20.60;99.90;;;;;;5054242;28;20181;-81
2023/06/22 05:51:59;;;;;;;8.57;7.72;;;20.60;99.90;;;;;;5048200;28;20181;-81
2023/06/22 05:54:27;;;;;;;8.60;7.78;;;20.80;99.90;;;;;;5070566;28;20221;-84
2023/06/22 05:56:52;;;;;;;7.82;6.80;;;21.40;99.90;;;;;;5055936;28;20268;-84
2023/06/22 05:59:18;;;;;;;7.55;6.75;;;21.90;1.00;;;;;;5054059;28;20201;-81
2023/06/22 06:01:44;;;;;;;10.90;9.13;;;22.40;1.00;;;;;;5062112;28;20162;-83
2023/06/22 06:04:09;;;;;;;9.55;8.57;;;22.30;1.00;;;;;;5075078;22;20312;-84
2023/06/22 06:06:36;;;;;;;9.68;8.50;;;22.00;99.90;;;;;;5037321;28;20208;-83
2023/06/22 06:09:04;;;;;;;9.52;8.63;;;22.10;99.90;;;;;;5055286;28;20178;-81
2023/06/22 06:11:29;;;;;;;9.85;8.85;;;21.90;99.90;;;;;;5055174;28;20709;-83
2023/06/22 06:13:55;;;;;;;10.40;9.32;;;21.70;99.90;;;;;;5055287;28;20198;-82
2023/06/22 06:16:21;;;;;;;9.68;8.35;;;21.40;99.90;;;;;;5055021;28;20196;-79
2023/06/22 06:18:49;;;;;;;10.13;9.13;;;21.50;99.90;;;;;;5055042;28;20280;-80
2023/06/22 06:21:15;;;;;;;10.95;9.70;;;21.30;99.90;;;;;;5053741;28;20178;-80
2023/06/22 06:23:40;;;;;;;10.85;9.70;;;21.20;99.90;;;;;;5035423;28;20211;-80
2023/06/22 06:26:06;;;;;;;10.88;9.63;;;21.20;99.90;;;;;;5053141;28;20169;-82
2023/06/22 06:28:33;;;;;;;11.07;9.98;;;21.10;99.90;;;;;;5063949;28;20165;-81
2023/06/22 06:30:58;;;;;;;9.75;8.82;;;21.20;99.90;;;;;;5036329;28;20315;-81
2023/06/22 06:33:24;;;;;;;8.18;7.43;;;21.30;99.90;;;;;;5054464;28;20229;-81
2023/06/22 06:35:49;;;;;;;8.07;7.30;;;21.50;99.90;;;;;;5037053;28;20204;-80
2023/06/22 06:38:15;;;;;;;7.43;6.82;;;21.70;99.90;;;;;;5036559;28;20307;-81
2023/06/22 06:40:41;;;;;;;9.77;8.82;;;22.00;99.90;;;;;;5046993;28;20170;-81
2023/06/22 06:43:06;;;;;;;10.45;9.45;;;22.20;99.90;;;;;;5036757;28;20196;-80
2023/06/22 06:45:34;;;;;;;11.25;9.82;;;22.30;99.90;;;;;;5036574;28;20170;-81
2023/06/22 06:48:00;;;;;;;10.45;9.23;;;22.20;99.90;;;;;;5054488;28;20188;-81
2023/06/22 06:50:25;;;;;;;9.93;8.93;;;22.10;99.90;;;;;;5054133;28;20183;-80
2023/06/22 06:52:51;;;;;;;10.15;9.15;;;22.20;99.90;;;;;;5032191;28;20232;-79
2023/06/22 06:55:17;;;;;;;10.02;8.95;;;22.20;99.90;;;;;;5054295;28;20200;-79
2023/06/22 06:57:43;;;;;;;9.90;8.93;;;22.30;99.90;;;;;;5056971;28;20165;-80
2023/06/22 07:00:11;;;;;;;10.32;9.32;;;22.40;99.90;;;;;;5035141;28;20212;-80
2023/06/22 07:02:39;;;;;;;8.43;7.07;;;22.50;99.90;;;;;;5033584;28;20166;-81
2023/06/22 07:05:05;;;;;;;7.72;6.85;;;22.60;44.90;;;;;;5053520;28;20197;-79
2023/06/22 07:07:31;;;;;;;8.48;7.72;;;22.70;30.50;;;;;;5035186;28;20227;-79
2023/06/22 07:09:57;;;;;;;9.00;8.10;;;23.00;1.00;;;;;;5028872;28;20227;-80
2023/06/22 07:12:22;;;;;;;10.60;9.57;;;23.10;1.00;;;;;;5034616;28;20185;-79
2023/06/22 07:14:48;;;;;;;9.85;8.93;;;23.20;36.50;;;;;;5035310;28;20197;-79
2023/06/22 07:17:14;;;;;;;12.15;8.95;;;23.20;36.20;;;;;;5047762;28;20177;-78
2023/06/22 07:19:42;;;;;;;8.55;7.50;;;23.20;65.90;;;;;;5036955;28;20201;-81
2023/06/22 07:22:07;;;;;;;10.07;9.07;;;23.20;1.00;;;;;;5037346;28;20206;-81
2023/06/22 07:24:33;;;;;;;10.05;9.15;;;23.30;84.40;;;;;;5037193;28;20186;-81
2023/06/22 07:26:59;;;;;;;9.88;8.98;;;23.40;1.00;;;;;;5055302;28;20173;-82
2023/06/22 07:29:26;;;;;;;10.43;9.43;;;23.40;5.80;;;;;;5037738;28;20265;-81
2023/06/22 07:31:52;;;;;;;9.68;8.73;;;23.50;87.00;;;;;;5037375;28;20662;-81
2023/06/22 07:34:19;;;;;;;9.35;8.55;;;23.60;91.20;;;;;;5055537;28;20200;-81
2023/06/22 07:36:45;;;;;;;8.88;7.97;;;23.80;1.00;;;;;;5037246;28;20269;-81
2023/06/22 07:39:11;;;;;;;9.77;8.88;;;23.80;1.00;;;;;;5037238;28;20281;-80
2023/06/22 07:41:37;;;;;;;9.32;8.43;;;24.00;1.00;;;;;;5054932;28;20256;-82
2023/06/22 07:44:03;;;;;;;9.07;8.27;;;24.00;1.00;;;;;;5050443;28;20662;-81
2023/06/22 07:46:30;;;;;;;9.07;7.93;;;24.10;1.00;;;;;;5063928;28;20173;-81
2023/06/22 07:48:59;;;;;;;10.13;9.15;;;24.20;1.00;;;;;;5055044;28;20209;-81
2023/06/22 07:51:25;;;;;;;8.48;7.78;;;24.40;99.90;;;;;;5074940;28;20161;-82
2023/06/22 07:53:51;;;;;;;8.68;7.90;;;24.50;1.00;;;;;;5074458;28;20197;-82
2023/06/22 07:56:20;;;;;;;8.93;8.02;;;24.70;99.90;;;;;;5074576;28;20283;-81
2023/06/22 07:58:46;;;;;;;9.70;8.18;;;24.90;99.90;;;;;;5074741;28;20290;-82
2023/06/22 08:01:14;;;;;;;8.23;7.43;;;25.10;1.00;;;;;;5056587;28;20201;-82
2023/06/22 08:03:39;;;;;;;7.82;7.07;;;25.30;1.00;;;;;;5056751;28;20258;-82
2023/06/22 08:06:05;;;;;;;7.68;6.95;;;25.30;1.00;;;;;;5074879;28;20243;-81
2023/06/22 08:08:31;;;;;;;8.48;7.68;;;25.40;99.90;;;;;;5074961;28;20230;-82
2023/06/22 08:10:57;;;;;;;8.25;7.50;;;25.50;1.00;;;;;;5074741;28;20176;-82
2023/06/22 08:13:22;;;;;;;8.13;7.43;;;25.60;99.90;;;;;;5074937;28;20215;-82
2023/06/22 08:15:48;;;;;;;8.20;7.45;;;25.70;1.00;;;;;;5074654;28;20164;-82
2023/06/22 08:18:14;;;;;;;8.65;7.82;;;25.90;98.40;;;;;;5074365;28;20177;-82
2023/06/22 08:20:39;;;;;;;7.80;7.10;;;25.90;1.00;;;;;;5056508;28;20202;-82
2023/06/22 08:23:06;;;;;;;8.25;7.00;;;26.00;32.10;;;;;;5074384;28;20191;-82
2023/06/22 08:25:35;;;;;;;7.57;6.80;;;26.00;1.00;;;;;;5056799;28;20173;-82
2023/06/22 08:28:02;;;;;;;9.32;7.15;;;26.00;99.90;;;;;;5074523;28;20190;-81
2023/06/22 08:30:28;;;;;;;6.88;6.30;;;26.00;99.90;;;;;;5074624;28;20184;-82
2023/06/22 08:32:54;;;;;;;8.18;7.20;;;26.10;74.40;;;;;;5074503;28;20181;-82
2023/06/22 08:35:20;;;;;;;6.45;5.88;;;26.20;99.90;;;;;;5074102;28;20168;-81
2023/06/22 08:37:52;;;;;;;6.20;5.60;;;26.40;1.00;;;;;;5056473;28;20184;-82
2023/06/22 08:40:19;;;;;;;6.18;5.25;;;26.50;1.00;;;;;;5055808;28;20204;-82
2023/06/22 08:42:45;;;;;;;6.80;5.65;;;26.80;99.90;;;;;;5053765;28;20181;-82
2023/06/22 08:45:11;;;;;;;6.55;5.57;;;26.90;99.90;;;;;;5035034;28;20177;-82
2023/06/22 08:47:37;;;;;;;6.60;5.50;;;26.80;99.90;;;;;;5035534;28;20629;-82
2023/06/22 08:50:03;;;;;;;6.55;5.95;;;26.80;99.90;;;;;;5034634;28;20182;-82
2023/06/22 08:52:29;;;;;;;5.70;5.20;;;26.90;31.80;;;;;;5035513;28;20177;-82
2023/06/22 08:54:55;;;;;;;5.82;5.28;;;27.10;99.90;;;;;;5053498;28;20197;-83
2023/06/22 08:57:21;;;;;;;5.60;5.07;;;27.30;1.00;;;;;;5053294;28;20200;-82
2023/06/22 08:59:47;;;;;;;5.85;5.15;;;27.20;1.00;;;;;;5035127;28;20208;-83
2023/06/22 09:02:12;;;;;;;6.10;5.50;;;27.40;99.90;;;;;;5035216;28;20165;-83
2023/06/22 09:04:38;;;;;;;6.63;5.15;;;27.40;2.40;;;;;;5053004;28;20216;-82
2023/06/22 09:07:04;;;;;;;5.45;5.05;;;27.60;1.00;;;;;;5053215;28;20248;-82
2023/06/22 09:09:30;;;;;;;6.45;5.28;;;27.80;1.00;;;;;;5035035;28;20186;-82
2023/06/22 09:11:55;;;;;;;24.42;21.48;;;27.70;99.90;;;;;;5053929;28;20268;-82
2023/06/22 09:14:21;;;;;;;7.07;6.10;;;27.90;1.00;;;;;;5037557;28;20216;-83
2023/06/22 09:16:46;;;;;;;6.30;5.40;;;28.20;1.00;;;;;;5037888;28;20315;-80
2023/06/22 09:19:12;;;;;;;5.63;5.13;;;28.40;99.90;;;;;;5037906;28;20247;-83
2023/06/22 09:21:38;;;;;;;5.97;5.10;;;28.50;99.90;;;;;;5035270;28;20170;-82
2023/06/22 09:24:04;;;;;;;5.57;5.03;;;28.70;99.90;;;;;;5035298;28;20204;-82
2023/06/22 09:26:30;;;;;;;5.63;5.07;;;28.80;99.90;;;;;;5054392;28;20196;-83
2023/06/22 09:28:55;;;;;;;5.80;5.15;;;28.80;99.90;;;;;;5039033;28;20170;-83
2023/06/22 09:31:29;;;;;;;6.05;5.43;;;29.00;1.00;;;;;;5056755;28;20178;-82
2023/06/22 09:33:55;;;;;;;5.70;5.15;;;29.20;1.00;;;;;;5056008;28;20192;-83
2023/06/22 09:36:21;;;;;;;6.07;5.43;;;29.10;1.00;;;;;;5056498;28;20178;-83
2023/06/22 09:38:48;;;;;;;5.38;4.90;;;29.10;1.00;;;;;;5038230;28;20204;-82
2023/06/22 09:41:13;;;;;;;6.18;5.50;;;28.80;1.00;;;;;;5038347;28;20170;-83
2023/06/22 09:43:39;;;;;;;6.10;5.50;;;28.80;1.00;;;;;;5056265;28;20186;-83
2023/06/22 09:46:05;;;;;;;5.72;5.22;;;28.70;1.00;;;;;;5038637;28;20208;-83
2023/06/22 09:48:31;;;;;;;6.28;5.68;;;28.80;1.00;;;;;;5039234;28;20193;-82
2023/06/22 09:50:56;;;;;;;5.57;5.07;;;29.10;1.00;;;;;;5038250;28;20165;-83
2023/06/22 09:53:22;;;;;;;6.03;5.40;;;29.40;1.00;;;;;;5055731;28;20205;-83
2023/06/22 09:55:48;;;;;;;6.25;5.13;;;29.30;1.00;;;;;;5071503;28;20174;-83
2023/06/22 09:58:13;;;;;;;6.07;5.50;;;29.30;1.00;;;;;;5071551;28;20177;-83
2023/06/22 10:00:41;;;;;;;5.68;5.20;;;29.50;1.00;;;;;;5055409;28;20193;-81
2023/06/22 10:03:07;;;;;;;5.60;5.10;;;29.60;9.30;;;;;;5053112;28;20225;-82
2023/06/22 10:05:32;;;;;;;5.57;5.05;;;30.00;1.00;;;;;;5048624;28;20182;-80
2023/06/22 10:07:58;;;;;;;5.80;5.20;;;30.30;1.00;;;;;;5056662;28;20174;-82
2023/06/22 10:10:24;;;;;;;6.22;5.63;;;30.50;99.90;;;;;;5054653;28;20235;-82
2023/06/22 10:12:57;;;;;;;6.38;5.78;;;30.30;99.90;;;;;;5069873;28;20182;-80
2023/06/22 10:15:23;;;;;;;6.63;5.25;;;30.20;99.90;;;;;;5019020;28;20178;-80
2023/06/22 10:17:48;;;;;;;5.80;5.20;;;30.50;99.90;;;;;;5017835;28;20181;-80
2023/06/22 10:20:14;;;;;;;6.05;5.30;;;30.50;99.90;;;;;;5017811;28;20204;-81
2023/06/22 10:22:42;;;;;;;5.82;5.30;;;30.50;23.50;;;;;;5018612;28;20633;-82
2023/06/22 10:25:08;;;;;;;5.85;5.20;;;30.50;77.30;;;;;;5036872;28;20174;-83
2023/06/22 10:27:34;;;;;;;5.57;4.85;;;30.60;2.90;;;;;;5054407;28;20275;-84
2023/06/22 10:29:59;;;;;;;5.30;4.80;;;30.80;1.00;;;;;;5037367;28;20232;-83
2023/06/22 10:32:25;;;;;;;5.43;4.93;;;30.90;1.00;;;;;;5055305;28;20170;-82
2023/06/22 10:34:51;;;;;;;5.32;4.82;;;30.90;85.30;;;;;;5037121;28;20193;-83
2023/06/22 10:37:16;;;;;;;5.30;4.80;;;31.10;1.00;;;;;;5037265;28;20555;-82
2023/06/22 10:39:42;;;;;;;6.40;4.82;;;31.30;1.00;;;;;;5037432;28;20205;-82
2023/06/22 10:42:07;;;;;;;5.93;4.93;;;31.50;1.00;;;;;;5055599;28;20244;-81
2023/06/22 10:44:33;;;;;;;5.88;5.20;;;31.40;1.00;;;;;;5036938;28;20209;-78
2023/06/22 10:46:59;;;;;;;4.72;4.32;;;31.30;1.00;;;;;;5035130;28;20227;-81
2023/06/22 10:49:24;;;;;;;6.28;4.90;;;31.70;1.00;;;;;;5057412;28;20177;-82
2023/06/22 10:51:50;;;;;;;4.80;4.40;;;31.40;1.00;;;;;;5038852;28;20176;-80
2023/06/22 10:54:18;;;;;;;5.30;4.72;;;31.20;1.00;;;;;;5037251;28;20193;-80
2023/06/22 10:56:43;;;;;;;4.82;4.40;;;30.90;1.00;;;;;;5053762;28;20700;-80
2023/06/22 10:59:09;;;;;;;5.00;4.60;;;30.70;5.70;;;;;;5036394;28;20288;-81
2023/06/22 11:01:35;;;;;;;5.38;4.72;;;31.20;6.70;;;;;;5026359;28;20177;-80
2023/06/22 11:04:00;;;;;;;4.93;4.40;;;31.40;1.00;;;;;;5036917;28;20233;-80
2023/06/22 11:06:26;;;;;;;5.43;4.43;;;31.80;1.00;;;;;;5054748;28;20205;-80
2023/06/22 11:08:51;;;;;;;4.70;4.10;;;32.10;99.90;;;;;;5036978;28;20284;-80
2023/06/22 11:11:17;;;;;;;4.40;4.00;;;32.20;99.90;;;;;;5037099;28;20645;-80
2023/06/22 11:13:43;;;;;;;4.63;4.22;;;32.60;1.00;;;;;;5055099;28;20215;-80
2023/06/22 11:16:10;;;;;;;5.25;4.20;;;32.70;99.90;;;;;;5054454;28;20213;-83
2023/06/22 11:18:36;;;;;;;5.65;4.10;;;32.60;99.90;;;;;;5036396;28;20683;-80
2023/06/22 11:21:01;;;;;;;4.93;4.35;;;32.70;99.90;;;;;;5049594;28;20178;-80
2023/06/22 11:23:28;;;;;;;4.85;4.32;;;32.70;99.90;;;;;;5036020;28;20613;-81
2023/06/22 11:25:54;;;;;;;4.22;3.83;;;32.60;99.90;;;;;;5036428;28;20177;-80
2023/06/22 11:28:19;;;;;;;4.65;4.20;;;32.20;99.90;;;;;;5036624;28;20166;-80
2023/06/22 11:30:45;;;;;;;4.45;4.00;;;32.10;99.90;;;;;;5036708;28;20550;-80
2023/06/22 11:33:11;;;;;;;4.82;4.20;;;32.10;1.00;;;;;;5036168;28;20204;-81
2023/06/22 11:35:36;;;;;;;5.38;4.18;;;32.10;1.00;;;;;;5036069;28;20170;-81
2023/06/22 11:38:03;;;;;;;4.60;4.18;;;32.10;99.90;;;;;;5036181;28;20169;-80
2023/06/22 11:40:29;;;;;;;4.40;4.00;;;31.90;99.90;;;;;;5053548;28;20200;-80
2023/06/22 11:42:55;;;;;;;5.68;4.38;;;31.70;99.90;;;;;;5053766;28;20252;-80
2023/06/22 11:45:20;;;;;;;4.32;3.90;;;31.60;99.90;;;;;;5036069;28;20173;-80
2023/06/22 11:47:46;;;;;;;5.93;3.80;;;31.90;99.90;;;;;;5053511;28;20177;-78
2023/06/22 11:50:12;;;;;;;4.47;4.07;;;32.20;99.90;;;;;;5034572;28;20378;-78
2023/06/22 11:52:37;;;;;;;4.95;4.45;;;32.40;99.90;;;;;;5034651;28;20268;-78
2023/06/22 11:55:05;;;;;;;4.57;4.15;;;32.30;99.90;;;;;;5034424;28;20198;-79
2023/06/22 11:57:33;;;;;;;4.45;3.60;;;32.40;99.90;;;;;;5034634;28;20181;-78
2023/06/22 11:59:58;;;;;;;4.78;4.28;;;32.60;99.90;;;;;;5033234;28;20208;-78
2023/06/22 12:02:24;;;;;;;4.20;3.80;;;32.80;99.90;;;;;;5052476;28;20166;-78
2023/06/22 12:04:52;;;;;;;5.88;4.55;;;32.80;99.90;;;;;;5053105;28;20209;-78
2023/06/22 12:07:18;;;;;;;5.07;4.57;;;32.60;99.90;;;;;;5052242;28;20166;-80
2023/06/22 12:09:43;;;;;;;4.75;4.20;;;32.70;99.90;;;;;;5034239;28;20231;-78
2023/06/22 12:12:09;;;;;;;7.22;4.47;;;32.60;99.90;;;;;;5052274;28;20173;-79
2023/06/22 12:14:35;;;;;;;5.22;4.43;;;32.80;99.90;;;;;;5052211;28;20196;-78
2023/06/22 12:17:01;;;;;;;6.20;4.55;;;32.50;99.90;;;;;;5034484;28;20778;-79
2023/06/22 12:19:26;;;;;;;5.30;4.78;;;32.60;99.90;;;;;;5034080;28;20197;-78
2023/06/22 12:21:52;;;;;;;5.28;4.65;;;32.50;99.90;;;;;;5034130;28;20641;-78
2023/06/22 12:24:18;;;;;;;6.13;4.75;;;32.80;99.90;;;;;;5034314;28;20194;-78
2023/06/22 12:26:44;;;;;;;7.20;4.90;;;32.90;99.90;;;;;;5044538;28;20707;-77
2023/06/22 12:29:09;;;;;;;5.80;5.07;;;32.80;99.90;;;;;;5053983;28;20198;-78
2023/06/22 12:31:38;;;;;;;5.22;4.78;;;32.40;99.90;;;;;;5051801;28;20182;-78
2023/06/22 12:34:04;;;;;;;5.40;4.90;;;32.10;1.00;;;;;;5052457;28;20201;-78
2023/06/22 12:36:29;;;;;;;5.80;4.93;;;32.10;1.00;;;;;;5034515;28;20240;-78
2023/06/22 12:38:55;;;;;;;5.78;5.18;;;32.20;1.00;;;;;;5034574;28;20198;-78
2023/06/22 12:41:21;;;;;;;5.70;5.10;;;32.50;1.00;;;;;;5052027;28;20174;-78
2023/06/22 12:43:46;;;;;;;6.35;4.78;;;32.50;1.00;;;;;;5052072;28;20239;-78
2023/06/22 12:46:12;;;;;;;5.55;4.80;;;32.50;1.00;;;;;;5052707;28;20177;-78